sensor_id;sensor_type;location;lat;lon;timestamp;P1;durP1;ratioP1;P2;durP2;ratioP2
4724;SDS011;2376;53.544;10.226;2023-02-28T00:00:07;3.97;;;3.73;;
4724;SDS011;2376;53.544;10.226;2023-02-28T00:02:36;3.70;;;3.40;;
4724;SDS011;2376;53.544;10.226;2023-02-28T00:05:05;4.10;;;3.70;;
4724;SDS011;2376;53.544;10.226;2023-02-28T00:07:33;4.87;;;4.47;;
4724;SDS011;2376;53.544;10.226;2023-02-28T00:10:00;4.50;;;3.93;;
4724;SDS011;2376;53.544;10.226;2023-02-28T00:12:28;4.70;;;4.30;;
4724;SDS011;2376;53.544;10.226;2023-02-28T00:14:55;3.27;;;2.97;;
4724;SDS011;2376;53.544;10.226;2023-02-28T00:17:21;3.90;;;3.60;;
4724;SDS011;2376;53.544;10.226;2023-02-28T00:19:48;3.20;;;3.00;;
4724;SDS011;2376;53.544;10.226;2023-02-28T00:22:17;4.13;;;3.73;;
4724;SDS011;2376;53.544;10.226;2023-02-28T00:24:45;4.60;;;3.57;;
4724;SDS011;2376;53.544;10.226;2023-02-28T00:27:12;3.07;;;2.87;;
4724;SDS011;2376;53.544;10.226;2023-02-28T00:29:39;3.43;;;3.20;;
4724;SDS011;2376;53.544;10.226;2023-02-28T00:32:06;7.83;;;3.67;;
4724;SDS011;2376;53.544;10.226;2023-02-28T00:34:33;2.90;;;2.70;;
4724;SDS011;2376;53.544;10.226;2023-02-28T00:37:02;4.93;;;3.63;;
4724;SDS011;2376;53.544;10.226;2023-02-28T00:39:31;6.83;;;2.97;;
4724;SDS011;2376;53.544;10.226;2023-02-28T00:41:59;6.10;;;2.97;;
4724;SDS011;2376;53.544;10.226;2023-02-28T00:44:27;5.40;;;3.30;;
4724;SDS011;2376;53.544;10.226;2023-02-28T00:46:53;3.23;;;2.60;;
4724;SDS011;2376;53.544;10.226;2023-02-28T00:49:21;2.40;;;2.20;;
4724;SDS011;2376;53.544;10.226;2023-02-28T00:51:48;6.10;;;4.63;;
4724;SDS011;2376;53.544;10.226;2023-02-28T00:54:17;2.63;;;2.43;;
4724;SDS011;2376;53.544;10.226;2023-02-28T00:56:46;3.93;;;2.83;;
4724;SDS011;2376;53.544;10.226;2023-02-28T00:59:13;4.60;;;3.57;;
4724;SDS011;2376;53.544;10.226;2023-02-28T01:01:40;3.03;;;2.83;;
4724;SDS011;2376;53.544;10.226;2023-02-28T01:04:07;4.30;;;2.30;;
4724;SDS011;2376;53.544;10.226;2023-02-28T01:06:34;5.40;;;2.70;;
4724;SDS011;2376;53.544;10.226;2023-02-28T01:09:02;2.30;;;2.10;;
4724;SDS011;2376;53.544;10.226;2023-02-28T01:11:29;3.13;;;2.83;;
4724;SDS011;2376;53.544;10.226;2023-02-28T01:13:57;3.87;;;2.10;;
4724;SDS011;2376;53.544;10.226;2023-02-28T01:16:24;2.63;;;2.43;;
4724;SDS011;2376;53.544;10.226;2023-02-28T01:18:51;2.30;;;2.10;;
4724;SDS011;2376;53.544;10.226;2023-02-28T01:21:19;2.00;;;1.90;;
4724;SDS011;2376;53.544;10.226;2023-02-28T01:23:47;3.67;;;2.70;;
4724;SDS011;2376;53.544;10.226;2023-02-28T01:26:14;3.13;;;2.87;;
4724;SDS011;2376;53.544;10.226;2023-02-28T01:28:43;2.53;;;2.27;;
4724;SDS011;2376;53.544;10.226;2023-02-28T01:31:11;3.53;;;2.80;;
4724;SDS011;2376;53.544;10.226;2023-02-28T01:33:39;2.03;;;1.93;;
4724;SDS011;2376;53.544;10.226;2023-02-28T01:36:07;3.37;;;2.67;;
4724;SDS011;2376;53.544;10.226;2023-02-28T01:38:36;2.00;;;1.80;;
4724;SDS011;2376;53.544;10.226;2023-02-28T01:41:03;2.77;;;2.30;;
4724;SDS011;2376;53.544;10.226;2023-02-28T01:43:31;2.23;;;2.03;;
4724;SDS011;2376;53.544;10.226;2023-02-28T01:45:59;2.50;;;2.00;;
4724;SDS011;2376;53.544;10.226;2023-02-28T01:48:27;2.73;;;2.53;;
4724;SDS011;2376;53.544;10.226;2023-02-28T01:50:58;4.30;;;2.80;;
4724;SDS011;2376;53.544;10.226;2023-02-28T01:53:29;2.70;;;2.50;;
4724;SDS011;2376;53.544;10.226;2023-02-28T01:55:58;3.40;;;3.10;;
4724;SDS011;2376;53.544;10.226;2023-02-28T01:58:25;9.13;;;2.10;;
4724;SDS011;2376;53.544;10.226;2023-02-28T02:00:52;5.37;;;2.57;;
4724;SDS011;2376;53.544;10.226;2023-02-28T02:03:18;3.07;;;2.60;;
4724;SDS011;2376;53.544;10.226;2023-02-28T02:05:47;3.03;;;1.90;;
4724;SDS011;2376;53.544;10.226;2023-02-28T02:08:16;3.90;;;2.33;;
4724;SDS011;2376;53.544;10.226;2023-02-28T02:10:45;5.67;;;2.20;;
4724;SDS011;2376;53.544;10.226;2023-02-28T02:13:31;2.40;;;2.20;;
4724;SDS011;2376;53.544;10.226;2023-02-28T02:16:11;3.23;;;2.23;;
4724;SDS011;2376;53.544;10.226;2023-02-28T02:18:53;6.10;;;2.10;;
4724;SDS011;2376;53.544;10.226;2023-02-28T02:21:42;2.23;;;2.03;;
4724;SDS011;2376;53.544;10.226;2023-02-28T02:24:29;2.07;;;1.97;;
4724;SDS011;2376;53.544;10.226;2023-02-28T02:27:26;2.27;;;2.17;;
4724;SDS011;2376;53.544;10.226;2023-02-28T02:33:03;2.33;;;2.13;;
4724;SDS011;2376;53.544;10.226;2023-02-28T02:35:42;2.10;;;1.90;;
4724;SDS011;2376;53.544;10.226;2023-02-28T02:38:17;2.40;;;2.13;;
4724;SDS011;2376;53.544;10.226;2023-02-28T02:44:13;2.40;;;2.20;;
4724;SDS011;2376;53.544;10.226;2023-02-28T02:46:45;2.37;;;2.27;;
4724;SDS011;2376;53.544;10.226;2023-02-28T02:49:15;2.37;;;2.17;;
4724;SDS011;2376;53.544;10.226;2023-02-28T02:51:47;3.00;;;2.20;;
4724;SDS011;2376;53.544;10.226;2023-02-28T02:54:15;3.43;;;2.07;;
4724;SDS011;2376;53.544;10.226;2023-02-28T02:56:46;4.40;;;2.53;;
4724;SDS011;2376;53.544;10.226;2023-02-28T02:59:15;3.67;;;2.50;;
4724;SDS011;2376;53.544;10.226;2023-02-28T03:01:46;6.67;;;2.67;;
4724;SDS011;2376;53.544;10.226;2023-02-28T03:04:17;4.40;;;2.97;;
4724;SDS011;2376;53.544;10.226;2023-02-28T03:06:47;1.93;;;1.80;;
4724;SDS011;2376;53.544;10.226;2023-02-28T03:09:13;3.20;;;1.80;;
4724;SDS011;2376;53.544;10.226;2023-02-28T03:11:40;7.73;;;1.90;;
4724;SDS011;2376;53.544;10.226;2023-02-28T03:17:06;2.87;;;2.13;;
4724;SDS011;2376;53.544;10.226;2023-02-28T03:19:49;2.23;;;2.13;;
4724;SDS011;2376;53.544;10.226;2023-02-28T03:22:32;2.50;;;2.30;;
4724;SDS011;2376;53.544;10.226;2023-02-28T03:25:18;3.43;;;2.00;;
4724;SDS011;2376;53.544;10.226;2023-02-28T03:27:53;2.57;;;2.30;;
4724;SDS011;2376;53.544;10.226;2023-02-28T03:30:28;3.63;;;2.13;;
4724;SDS011;2376;53.544;10.226;2023-02-28T03:33:03;2.30;;;2.10;;
4724;SDS011;2376;53.544;10.226;2023-02-28T03:35:34;2.63;;;2.30;;
4724;SDS011;2376;53.544;10.226;2023-02-28T03:38:07;3.00;;;2.13;;
4724;SDS011;2376;53.544;10.226;2023-02-28T03:40:39;2.00;;;1.90;;
4724;SDS011;2376;53.544;10.226;2023-02-28T03:43:13;2.30;;;2.10;;
4724;SDS011;2376;53.544;10.226;2023-02-28T03:45:44;2.53;;;2.00;;
4724;SDS011;2376;53.544;10.226;2023-02-28T03:48:15;2.60;;;2.40;;
4724;SDS011;2376;53.544;10.226;2023-02-28T03:50:46;2.40;;;2.20;;
4724;SDS011;2376;53.544;10.226;2023-02-28T03:53:17;4.20;;;2.40;;
4724;SDS011;2376;53.544;10.226;2023-02-28T03:55:48;4.13;;;2.73;;
4724;SDS011;2376;53.544;10.226;2023-02-28T03:58:20;4.53;;;2.00;;
4724;SDS011;2376;53.544;10.226;2023-02-28T04:00:51;3.60;;;2.10;;
4724;SDS011;2376;53.544;10.226;2023-02-28T04:03:23;2.00;;;1.90;;
4724;SDS011;2376;53.544;10.226;2023-02-28T04:05:51;3.40;;;2.63;;
4724;SDS011;2376;53.544;10.226;2023-02-28T04:08:20;3.20;;;2.40;;
4724;SDS011;2376;53.544;10.226;2023-02-28T04:10:50;2.27;;;2.10;;
4724;SDS011;2376;53.544;10.226;2023-02-28T04:13:21;1.87;;;1.73;;
4724;SDS011;2376;53.544;10.226;2023-02-28T04:15:48;3.67;;;2.10;;
4724;SDS011;2376;53.544;10.226;2023-02-28T04:18:14;2.67;;;2.47;;
4724;SDS011;2376;53.544;10.226;2023-02-28T04:20:41;1.90;;;1.70;;
4724;SDS011;2376;53.544;10.226;2023-02-28T04:23:08;3.00;;;2.07;;
4724;SDS011;2376;53.544;10.226;2023-02-28T04:25:36;2.20;;;2.00;;
4724;SDS011;2376;53.544;10.226;2023-02-28T04:28:05;2.70;;;2.40;;
4724;SDS011;2376;53.544;10.226;2023-02-28T04:30:32;2.60;;;1.90;;
4724;SDS011;2376;53.544;10.226;2023-02-28T04:33:00;4.27;;;2.30;;
4724;SDS011;2376;53.544;10.226;2023-02-28T04:35:27;1.60;;;1.50;;
4724;SDS011;2376;53.544;10.226;2023-02-28T04:37:54;5.07;;;1.97;;
4724;SDS011;2376;53.544;10.226;2023-02-28T04:40:20;1.87;;;1.50;;
4724;SDS011;2376;53.544;10.226;2023-02-28T04:42:48;1.80;;;1.70;;
4724;SDS011;2376;53.544;10.226;2023-02-28T04:45:15;2.50;;;1.80;;
4724;SDS011;2376;53.544;10.226;2023-02-28T04:47:42;3.17;;;1.70;;
4724;SDS011;2376;53.544;10.226;2023-02-28T04:50:09;1.67;;;1.60;;
4724;SDS011;2376;53.544;10.226;2023-02-28T04:52:36;2.23;;;1.90;;
4724;SDS011;2376;53.544;10.226;2023-02-28T04:55:03;6.37;;;1.73;;
4724;SDS011;2376;53.544;10.226;2023-02-28T04:57:30;1.80;;;1.70;;
4724;SDS011;2376;53.544;10.226;2023-02-28T04:59:58;1.83;;;1.73;;
4724;SDS011;2376;53.544;10.226;2023-02-28T05:02:25;2.67;;;1.50;;
4724;SDS011;2376;53.544;10.226;2023-02-28T05:04:51;3.57;;;1.37;;
4724;SDS011;2376;53.544;10.226;2023-02-28T05:07:18;1.53;;;1.43;;
4724;SDS011;2376;53.544;10.226;2023-02-28T05:09:45;1.83;;;1.73;;
4724;SDS011;2376;53.544;10.226;2023-02-28T05:12:11;2.30;;;1.77;;
4724;SDS011;2376;53.544;10.226;2023-02-28T05:14:38;3.87;;;1.73;;
4724;SDS011;2376;53.544;10.226;2023-02-28T05:17:06;4.30;;;1.63;;
4724;SDS011;2376;53.544;10.226;2023-02-28T05:19:34;2.03;;;1.70;;
4724;SDS011;2376;53.544;10.226;2023-02-28T05:22:01;1.90;;;1.80;;
4724;SDS011;2376;53.544;10.226;2023-02-28T05:24:28;2.10;;;2.00;;
4724;SDS011;2376;53.544;10.226;2023-02-28T05:26:54;2.57;;;2.07;;
4724;SDS011;2376;53.544;10.226;2023-02-28T05:29:21;1.83;;;1.67;;
4724;SDS011;2376;53.544;10.226;2023-02-28T05:31:48;5.83;;;2.10;;
4724;SDS011;2376;53.544;10.226;2023-02-28T05:34:16;2.00;;;1.90;;
4724;SDS011;2376;53.544;10.226;2023-02-28T05:36:43;3.73;;;1.70;;
4724;SDS011;2376;53.544;10.226;2023-02-28T05:39:10;2.23;;;1.93;;
4724;SDS011;2376;53.544;10.226;2023-02-28T05:41:38;2.40;;;2.00;;
4724;SDS011;2376;53.544;10.226;2023-02-28T05:44:08;2.53;;;2.33;;
4724;SDS011;2376;53.544;10.226;2023-02-28T05:46:35;3.43;;;2.27;;
4724;SDS011;2376;53.544;10.226;2023-02-28T05:49:03;4.87;;;2.50;;
4724;SDS011;2376;53.544;10.226;2023-02-28T05:51:31;3.27;;;2.50;;
4724;SDS011;2376;53.544;10.226;2023-02-28T05:53:59;2.53;;;2.13;;
4724;SDS011;2376;53.544;10.226;2023-02-28T05:56:26;2.90;;;2.10;;
4724;SDS011;2376;53.544;10.226;2023-02-28T05:58:54;2.80;;;2.60;;
4724;SDS011;2376;53.544;10.226;2023-02-28T06:01:22;2.20;;;2.10;;
4724;SDS011;2376;53.544;10.226;2023-02-28T06:03:58;13.53;;;3.23;;
4724;SDS011;2376;53.544;10.226;2023-02-28T06:06:26;3.53;;;2.53;;
4724;SDS011;2376;53.544;10.226;2023-02-28T06:08:54;5.00;;;2.87;;
4724;SDS011;2376;53.544;10.226;2023-02-28T06:11:21;4.10;;;3.37;;
4724;SDS011;2376;53.544;10.226;2023-02-28T06:13:52;4.13;;;2.77;;
4724;SDS011;2376;53.544;10.226;2023-02-28T06:16:19;3.00;;;2.80;;
4724;SDS011;2376;53.544;10.226;2023-02-28T06:18:46;3.57;;;2.80;;
4724;SDS011;2376;53.544;10.226;2023-02-28T06:21:13;2.40;;;2.27;;
4724;SDS011;2376;53.544;10.226;2023-02-28T06:23:40;2.80;;;2.60;;
4724;SDS011;2376;53.544;10.226;2023-02-28T06:26:08;3.00;;;2.67;;
4724;SDS011;2376;53.544;10.226;2023-02-28T06:28:35;5.93;;;2.70;;
4724;SDS011;2376;53.544;10.226;2023-02-28T06:31:05;4.33;;;2.00;;
4724;SDS011;2376;53.544;10.226;2023-02-28T06:33:32;2.83;;;2.63;;
4724;SDS011;2376;53.544;10.226;2023-02-28T06:35:59;2.60;;;2.40;;
4724;SDS011;2376;53.544;10.226;2023-02-28T06:38:26;5.77;;;3.00;;
4724;SDS011;2376;53.544;10.226;2023-02-28T06:40:53;3.03;;;2.03;;
4724;SDS011;2376;53.544;10.226;2023-02-28T06:43:22;6.23;;;2.20;;
4724;SDS011;2376;53.544;10.226;2023-02-28T06:45:50;2.20;;;2.00;;
4724;SDS011;2376;53.544;10.226;2023-02-28T06:48:20;2.07;;;1.97;;
4724;SDS011;2376;53.544;10.226;2023-02-28T06:50:46;2.50;;;2.30;;
4724;SDS011;2376;53.544;10.226;2023-02-28T06:53:13;3.50;;;2.70;;
4724;SDS011;2376;53.544;10.226;2023-02-28T06:55:40;3.93;;;2.23;;
4724;SDS011;2376;53.544;10.226;2023-02-28T06:58:07;2.50;;;2.30;;
4724;SDS011;2376;53.544;10.226;2023-02-28T07:00:41;2.00;;;1.57;;
4724;SDS011;2376;53.544;10.226;2023-02-28T07:03:11;3.03;;;2.83;;
4724;SDS011;2376;53.544;10.226;2023-02-28T07:05:40;3.00;;;2.70;;
4724;SDS011;2376;53.544;10.226;2023-02-28T07:08:07;3.97;;;3.57;;
4724;SDS011;2376;53.544;10.226;2023-02-28T07:10:33;3.37;;;3.10;;
4724;SDS011;2376;53.544;10.226;2023-02-28T07:13:03;4.17;;;3.03;;
4724;SDS011;2376;53.544;10.226;2023-02-28T07:15:30;11.17;;;4.57;;
4724;SDS011;2376;53.544;10.226;2023-02-28T07:17:58;6.60;;;5.47;;
4724;SDS011;2376;53.544;10.226;2023-02-28T07:20:25;5.00;;;4.17;;
4724;SDS011;2376;53.544;10.226;2023-02-28T07:22:51;7.80;;;4.97;;
4724;SDS011;2376;53.544;10.226;2023-02-28T07:25:21;4.33;;;3.93;;
4724;SDS011;2376;53.544;10.226;2023-02-28T07:27:48;4.33;;;3.57;;
4724;SDS011;2376;53.544;10.226;2023-02-28T07:30:15;4.13;;;3.07;;
4724;SDS011;2376;53.544;10.226;2023-02-28T07:32:42;4.30;;;4.00;;
4724;SDS011;2376;53.544;10.226;2023-02-28T07:35:10;8.70;;;4.43;;
4724;SDS011;2376;53.544;10.226;2023-02-28T07:37:37;5.70;;;4.20;;
4724;SDS011;2376;53.544;10.226;2023-02-28T07:40:04;6.47;;;4.60;;
4724;SDS011;2376;53.544;10.226;2023-02-28T07:42:34;4.17;;;3.70;;
4724;SDS011;2376;53.544;10.226;2023-02-28T07:45:00;4.67;;;4.10;;
4724;SDS011;2376;53.544;10.226;2023-02-28T07:47:28;5.37;;;4.23;;
4724;SDS011;2376;53.544;10.226;2023-02-28T07:49:55;6.67;;;4.43;;
4724;SDS011;2376;53.544;10.226;2023-02-28T07:52:23;7.07;;;5.30;;
4724;SDS011;2376;53.544;10.226;2023-02-28T07:54:50;6.37;;;4.30;;
4724;SDS011;2376;53.544;10.226;2023-02-28T07:57:17;4.70;;;4.20;;
4724;SDS011;2376;53.544;10.226;2023-02-28T07:59:44;8.50;;;4.90;;
4724;SDS011;2376;53.544;10.226;2023-02-28T08:02:11;4.37;;;4.03;;
4724;SDS011;2376;53.544;10.226;2023-02-28T08:04:39;7.20;;;5.07;;
4724;SDS011;2376;53.544;10.226;2023-02-28T08:07:06;4.50;;;4.10;;
4724;SDS011;2376;53.544;10.226;2023-02-28T08:09:35;4.93;;;4.53;;
4724;SDS011;2376;53.544;10.226;2023-02-28T08:12:02;6.23;;;4.73;;
4724;SDS011;2376;53.544;10.226;2023-02-28T08:14:29;5.37;;;4.97;;
4724;SDS011;2376;53.544;10.226;2023-02-28T08:16:55;6.50;;;5.10;;
4724;SDS011;2376;53.544;10.226;2023-02-28T08:19:22;6.20;;;5.20;;
4724;SDS011;2376;53.544;10.226;2023-02-28T08:21:49;7.53;;;5.57;;
4724;SDS011;2376;53.544;10.226;2023-02-28T08:24:15;9.60;;;5.20;;
4724;SDS011;2376;53.544;10.226;2023-02-28T08:26:43;5.47;;;4.87;;
4724;SDS011;2376;53.544;10.226;2023-02-28T08:29:10;8.13;;;5.87;;
4724;SDS011;2376;53.544;10.226;2023-02-28T08:31:37;6.67;;;5.77;;
4724;SDS011;2376;53.544;10.226;2023-02-28T08:34:05;5.43;;;5.00;;
4724;SDS011;2376;53.544;10.226;2023-02-28T08:36:32;6.70;;;5.20;;
4724;SDS011;2376;53.544;10.226;2023-02-28T08:38:58;11.53;;;5.17;;
4724;SDS011;2376;53.544;10.226;2023-02-28T08:41:25;4.67;;;3.90;;
4724;SDS011;2376;53.544;10.226;2023-02-28T08:43:53;4.20;;;3.73;;
4724;SDS011;2376;53.544;10.226;2023-02-28T08:46:20;5.20;;;4.30;;
4724;SDS011;2376;53.544;10.226;2023-02-28T08:48:47;5.10;;;3.20;;
4724;SDS011;2376;53.544;10.226;2023-02-28T08:51:17;3.63;;;3.33;;
4724;SDS011;2376;53.544;10.226;2023-02-28T08:53:47;4.10;;;2.87;;
4724;SDS011;2376;53.544;10.226;2023-02-28T08:56:15;6.03;;;3.47;;
4724;SDS011;2376;53.544;10.226;2023-02-28T08:58:42;3.10;;;2.60;;
4724;SDS011;2376;53.544;10.226;2023-02-28T09:01:12;3.17;;;2.97;;
4724;SDS011;2376;53.544;10.226;2023-02-28T09:03:41;2.73;;;2.53;;
4724;SDS011;2376;53.544;10.226;2023-02-28T09:06:09;3.60;;;3.30;;
4724;SDS011;2376;53.544;10.226;2023-02-28T09:08:36;2.63;;;2.43;;
4724;SDS011;2376;53.544;10.226;2023-02-28T09:11:03;3.20;;;3.00;;
4724;SDS011;2376;53.544;10.226;2023-02-28T09:13:30;6.13;;;3.17;;
4724;SDS011;2376;53.544;10.226;2023-02-28T09:15:58;3.00;;;2.67;;
4724;SDS011;2376;53.544;10.226;2023-02-28T09:18:29;2.53;;;2.33;;
4724;SDS011;2376;53.544;10.226;2023-02-28T09:20:57;2.30;;;1.90;;
4724;SDS011;2376;53.544;10.226;2023-02-28T09:23:24;2.33;;;2.10;;
4724;SDS011;2376;53.544;10.226;2023-02-28T09:25:51;4.50;;;2.43;;
4724;SDS011;2376;53.544;10.226;2023-02-28T09:28:19;2.13;;;2.03;;
4724;SDS011;2376;53.544;10.226;2023-02-28T09:30:48;2.73;;;2.53;;
4724;SDS011;2376;53.544;10.226;2023-02-28T09:33:16;3.30;;;2.27;;
4724;SDS011;2376;53.544;10.226;2023-02-28T09:35:47;4.20;;;2.00;;
4724;SDS011;2376;53.544;10.226;2023-02-28T09:38:14;1.70;;;1.60;;
4724;SDS011;2376;53.544;10.226;2023-02-28T09:40:47;1.60;;;1.50;;
4724;SDS011;2376;53.544;10.226;2023-02-28T09:43:16;2.13;;;2.03;;
4724;SDS011;2376;53.544;10.226;2023-02-28T09:45:47;1.50;;;1.40;;
4724;SDS011;2376;53.544;10.226;2023-02-28T09:48:18;2.80;;;1.37;;
4724;SDS011;2376;53.544;10.226;2023-02-28T09:50:49;1.73;;;1.30;;
4724;SDS011;2376;53.544;10.226;2023-02-28T09:53:19;2.33;;;1.00;;
4724;SDS011;2376;53.544;10.226;2023-02-28T09:55:53;1.20;;;1.10;;
4724;SDS011;2376;53.544;10.226;2023-02-28T09:58:26;0.80;;;0.80;;
4724;SDS011;2376;53.544;10.226;2023-02-28T10:00:57;1.67;;;0.80;;
4724;SDS011;2376;53.544;10.226;2023-02-28T10:03:29;0.70;;;0.70;;
4724;SDS011;2376;53.544;10.226;2023-02-28T10:06:04;0.80;;;0.70;;
4724;SDS011;2376;53.544;10.226;2023-02-28T10:08:37;1.00;;;1.00;;
4724;SDS011;2376;53.544;10.226;2023-02-28T10:11:10;1.00;;;1.00;;
4724;SDS011;2376;53.544;10.226;2023-02-28T10:13:44;3.13;;;1.10;;
4724;SDS011;2376;53.544;10.226;2023-02-28T10:16:19;1.30;;;1.20;;
4724;SDS011;2376;53.544;10.226;2023-02-28T10:18:51;1.27;;;1.10;;
4724;SDS011;2376;53.544;10.226;2023-02-28T10:21:23;0.90;;;0.90;;
4724;SDS011;2376;53.544;10.226;2023-02-28T10:23:56;0.93;;;0.93;;
4724;SDS011;2376;53.544;10.226;2023-02-28T10:26:28;0.70;;;0.70;;
4724;SDS011;2376;53.544;10.226;2023-02-28T10:28:57;0.97;;;0.90;;
4724;SDS011;2376;53.544;10.226;2023-02-28T10:31:24;1.77;;;0.90;;
4724;SDS011;2376;53.544;10.226;2023-02-28T10:33:51;1.20;;;1.20;;
4724;SDS011;2376;53.544;10.226;2023-02-28T10:36:19;1.20;;;0.90;;
4724;SDS011;2376;53.544;10.226;2023-02-28T10:38:48;2.50;;;0.77;;
4724;SDS011;2376;53.544;10.226;2023-02-28T10:41:17;1.63;;;0.80;;
4724;SDS011;2376;53.544;10.226;2023-02-28T10:43:53;1.23;;;1.13;;
4724;SDS011;2376;53.544;10.226;2023-02-28T10:46:39;1.40;;;1.17;;
4724;SDS011;2376;53.544;10.226;2023-02-28T10:49:12;1.83;;;1.10;;
4724;SDS011;2376;53.544;10.226;2023-02-28T10:51:40;1.60;;;1.50;;
4724;SDS011;2376;53.544;10.226;2023-02-28T10:54:15;2.17;;;2.07;;
4724;SDS011;2376;53.544;10.226;2023-02-28T10:56:44;1.57;;;1.20;;
4724;SDS011;2376;53.544;10.226;2023-02-28T10:59:27;1.40;;;1.30;;
4724;SDS011;2376;53.544;10.226;2023-02-28T11:01:55;2.03;;;1.20;;
4724;SDS011;2376;53.544;10.226;2023-02-28T11:04:32;2.03;;;1.53;;
4724;SDS011;2376;53.544;10.226;2023-02-28T11:07:03;1.47;;;1.10;;
4724;SDS011;2376;53.544;10.226;2023-02-28T11:09:33;2.77;;;1.57;;
4724;SDS011;2376;53.544;10.226;2023-02-28T11:12:04;1.50;;;1.20;;
4724;SDS011;2376;53.544;10.226;2023-02-28T11:14:33;1.30;;;1.20;;
4724;SDS011;2376;53.544;10.226;2023-02-28T11:17:14;1.47;;;1.40;;
4724;SDS011;2376;53.544;10.226;2023-02-28T11:19:46;1.33;;;1.23;;
4724;SDS011;2376;53.544;10.226;2023-02-28T11:22:17;1.50;;;1.37;;
4724;SDS011;2376;53.544;10.226;2023-02-28T11:24:48;1.37;;;1.37;;
4724;SDS011;2376;53.544;10.226;2023-02-28T11:27:25;1.30;;;1.20;;
4724;SDS011;2376;53.544;10.226;2023-02-28T11:30:12;1.10;;;1.10;;
4724;SDS011;2376;53.544;10.226;2023-02-28T11:32:58;1.30;;;1.20;;
4724;SDS011;2376;53.544;10.226;2023-02-28T11:35:26;1.70;;;1.20;;
4724;SDS011;2376;53.544;10.226;2023-02-28T11:37:56;1.23;;;1.13;;
4724;SDS011;2376;53.544;10.226;2023-02-28T11:40:34;1.90;;;1.70;;
4724;SDS011;2376;53.544;10.226;2023-02-28T11:43:10;1.40;;;1.30;;
4724;SDS011;2376;53.544;10.226;2023-02-28T11:45:54;1.60;;;1.50;;
4724;SDS011;2376;53.544;10.226;2023-02-28T11:48:42;1.60;;;1.30;;
4724;SDS011;2376;53.544;10.226;2023-02-28T11:51:21;1.60;;;1.47;;
4724;SDS011;2376;53.544;10.226;2023-02-28T11:56:53;2.93;;;1.50;;
4724;SDS011;2376;53.544;10.226;2023-02-28T11:59:34;1.90;;;1.73;;
4724;SDS011;2376;53.544;10.226;2023-02-28T12:02:18;1.70;;;1.60;;
4724;SDS011;2376;53.544;10.226;2023-02-28T12:04:52;1.50;;;1.40;;
4724;SDS011;2376;53.544;10.226;2023-02-28T12:07:29;1.43;;;1.33;;
4724;SDS011;2376;53.544;10.226;2023-02-28T12:10:04;1.47;;;1.33;;
4724;SDS011;2376;53.544;10.226;2023-02-28T12:12:44;1.77;;;1.30;;
4724;SDS011;2376;53.544;10.226;2023-02-28T12:15:27;2.40;;;1.20;;
4724;SDS011;2376;53.544;10.226;2023-02-28T12:18:10;1.50;;;1.40;;
4724;SDS011;2376;53.544;10.226;2023-02-28T12:20:49;1.40;;;1.30;;
4724;SDS011;2376;53.544;10.226;2023-02-28T12:23:22;2.57;;;1.20;;
4724;SDS011;2376;53.544;10.226;2023-02-28T12:26:06;1.33;;;1.20;;
4724;SDS011;2376;53.544;10.226;2023-02-28T12:28:41;1.30;;;1.30;;
4724;SDS011;2376;53.544;10.226;2023-02-28T12:31:14;1.40;;;1.30;;
4724;SDS011;2376;53.544;10.226;2023-02-28T12:33:45;1.20;;;1.20;;
4724;SDS011;2376;53.544;10.226;2023-02-28T12:36:14;1.57;;;1.47;;
4724;SDS011;2376;53.544;10.226;2023-02-28T12:38:44;1.53;;;1.30;;
4724;SDS011;2376;53.544;10.226;2023-02-28T12:41:15;1.57;;;1.47;;
4724;SDS011;2376;53.544;10.226;2023-02-28T12:43:47;1.60;;;1.50;;
4724;SDS011;2376;53.544;10.226;2023-02-28T12:46:21;1.40;;;1.30;;
4724;SDS011;2376;53.544;10.226;2023-02-28T12:48:52;1.50;;;1.20;;
4724;SDS011;2376;53.544;10.226;2023-02-28T12:51:21;1.50;;;1.40;;
4724;SDS011;2376;53.544;10.226;2023-02-28T12:53:53;1.30;;;1.20;;
4724;SDS011;2376;53.544;10.226;2023-02-28T12:56:29;1.37;;;1.27;;
4724;SDS011;2376;53.544;10.226;2023-02-28T12:59:03;1.47;;;1.20;;
4724;SDS011;2376;53.544;10.226;2023-02-28T13:01:42;1.80;;;1.20;;
4724;SDS011;2376;53.544;10.226;2023-02-28T13:04:36;8.03;;;1.30;;
4724;SDS011;2376;53.544;10.226;2023-02-28T13:07:29;1.80;;;1.30;;
4724;SDS011;2376;53.544;10.226;2023-02-28T13:10:19;1.50;;;1.50;;
4724;SDS011;2376;53.544;10.226;2023-02-28T13:12:49;1.33;;;1.23;;
4724;SDS011;2376;53.544;10.226;2023-02-28T13:15:19;2.20;;;1.43;;
4724;SDS011;2376;53.544;10.226;2023-02-28T13:17:49;1.27;;;1.20;;
4724;SDS011;2376;53.544;10.226;2023-02-28T13:20:18;1.47;;;1.37;;
4724;SDS011;2376;53.544;10.226;2023-02-28T13:22:47;1.37;;;1.27;;
4724;SDS011;2376;53.544;10.226;2023-02-28T13:31:33;1.40;;;1.30;;
4724;SDS011;2376;53.544;10.226;2023-02-28T13:34:39;1.50;;;1.40;;
4724;SDS011;2376;53.544;10.226;2023-02-28T13:42:53;1.80;;;1.27;;
4724;SDS011;2376;53.544;10.226;2023-02-28T13:45:21;1.10;;;1.10;;
4724;SDS011;2376;53.544;10.226;2023-02-28T13:47:53;4.77;;;1.43;;
4724;SDS011;2376;53.544;10.226;2023-02-28T13:50:29;2.20;;;1.50;;
4724;SDS011;2376;53.544;10.226;2023-02-28T13:53:17;1.63;;;1.40;;
4724;SDS011;2376;53.544;10.226;2023-02-28T13:56:00;1.60;;;1.50;;
4724;SDS011;2376;53.544;10.226;2023-02-28T13:58:41;3.50;;;2.10;;
4724;SDS011;2376;53.544;10.226;2023-02-28T14:01:23;1.63;;;1.53;;
4724;SDS011;2376;53.544;10.226;2023-02-28T14:06:57;2.10;;;1.57;;
4724;SDS011;2376;53.544;10.226;2023-02-28T14:09:25;1.50;;;1.40;;
4724;SDS011;2376;53.544;10.226;2023-02-28T14:11:55;4.03;;;1.60;;
4724;SDS011;2376;53.544;10.226;2023-02-28T14:17:21;2.70;;;1.60;;
4724;SDS011;2376;53.544;10.226;2023-02-28T14:19:49;1.70;;;1.60;;
4724;SDS011;2376;53.544;10.226;2023-02-28T14:22:19;1.20;;;1.20;;
4724;SDS011;2376;53.544;10.226;2023-02-28T14:25:10;1.63;;;1.53;;
4724;SDS011;2376;53.544;10.226;2023-02-28T14:27:44;1.77;;;1.60;;
4724;SDS011;2376;53.544;10.226;2023-02-28T14:33:27;3.93;;;1.47;;
4724;SDS011;2376;53.544;10.226;2023-02-28T14:36:08;2.20;;;1.30;;
4724;SDS011;2376;53.544;10.226;2023-02-28T14:38:40;1.20;;;1.20;;
4724;SDS011;2376;53.544;10.226;2023-02-28T14:43:57;1.40;;;1.30;;
4724;SDS011;2376;53.544;10.226;2023-02-28T14:46:25;1.40;;;1.30;;
4724;SDS011;2376;53.544;10.226;2023-02-28T14:49:03;2.97;;;2.10;;
4724;SDS011;2376;53.544;10.226;2023-02-28T14:51:33;1.87;;;1.40;;
4724;SDS011;2376;53.544;10.226;2023-02-28T14:54:01;1.30;;;1.20;;
4724;SDS011;2376;53.544;10.226;2023-02-28T14:56:30;2.20;;;2.10;;
4724;SDS011;2376;53.544;10.226;2023-02-28T14:59:00;1.93;;;1.70;;
4724;SDS011;2376;53.544;10.226;2023-02-28T15:01:27;1.20;;;1.20;;
4724;SDS011;2376;53.544;10.226;2023-02-28T15:03:57;1.40;;;1.30;;
4724;SDS011;2376;53.544;10.226;2023-02-28T15:06:26;1.50;;;1.40;;
4724;SDS011;2376;53.544;10.226;2023-02-28T15:09:15;1.53;;;1.40;;
4724;SDS011;2376;53.544;10.226;2023-02-28T15:11:45;1.13;;;1.03;;
4724;SDS011;2376;53.544;10.226;2023-02-28T15:14:19;4.00;;;1.27;;
4724;SDS011;2376;53.544;10.226;2023-02-28T15:16:49;1.10;;;1.00;;
4724;SDS011;2376;53.544;10.226;2023-02-28T15:19:22;1.37;;;1.27;;
4724;SDS011;2376;53.544;10.226;2023-02-28T15:21:51;1.77;;;1.67;;
4724;SDS011;2376;53.544;10.226;2023-02-28T15:24:30;1.03;;;1.03;;
4724;SDS011;2376;53.544;10.226;2023-02-28T15:27:03;1.80;;;1.03;;
4724;SDS011;2376;53.544;10.226;2023-02-28T15:29:34;2.07;;;1.20;;
4724;SDS011;2376;53.544;10.226;2023-02-28T15:32:19;1.60;;;1.33;;
4724;SDS011;2376;53.544;10.226;2023-02-28T15:34:50;1.53;;;1.40;;
4724;SDS011;2376;53.544;10.226;2023-02-28T15:37:30;2.20;;;1.37;;
4724;SDS011;2376;53.544;10.226;2023-02-28T15:40:10;1.40;;;1.40;;
4724;SDS011;2376;53.544;10.226;2023-02-28T15:42:39;1.13;;;1.10;;
4724;SDS011;2376;53.544;10.226;2023-02-28T15:47:54;1.67;;;1.57;;
4724;SDS011;2376;53.544;10.226;2023-02-28T15:50:21;1.50;;;1.30;;
4724;SDS011;2376;53.544;10.226;2023-02-28T15:52:47;1.50;;;1.40;;
4724;SDS011;2376;53.544;10.226;2023-02-28T15:55:18;1.70;;;1.37;;
4724;SDS011;2376;53.544;10.226;2023-02-28T15:57:47;1.40;;;1.30;;
4724;SDS011;2376;53.544;10.226;2023-02-28T16:00:18;1.40;;;1.30;;